Time;durP1;ratioP1;P1;durP2;ratioP2;P2;SDS_P1;SDS_P2;PMS_P1;PMS_P2;Temp;Humidity;BMP_temperature;BMP_pressure;BME280_temperature;BME280_humidity;BME280_pressure;Samples;Min_cycle;Max_cycle;Signal;HPM_P1;HPM_P2
2022/07/26 00:00:52;;;;;;;9.97;6.73;;;;;;;20.35;74.11;100596.38;5059300;28;20512;-64
2022/07/26 00:03:18;;;;;;;10.53;6.33;;;;;;;20.42;74.24;100595.25;5059526;28;20389;-65
2022/07/26 00:05:43;;;;;;;11.60;6.50;;;;;;;20.45;74.06;100597.78;5058885;28;20173;-64
2022/07/26 00:08:12;;;;;;;7.70;6.00;;;;;;;20.32;73.55;100592.03;5058966;28;20162;-64
2022/07/26 00:10:40;;;;;;;9.10;6.20;;;;;;;20.44;72.65;100590.75;5059284;28;20162;-65
2022/07/26 00:13:06;;;;;;;9.90;5.93;;;;;;;20.11;73.69;100595.41;5058861;28;20551;-64
2022/07/26 00:15:32;;;;;;;11.03;5.83;;;;;;;20.04;73.46;100589.44;5058029;28;20416;-66
2022/07/26 00:17:57;;;;;;;7.93;6.00;;;;;;;20.11;73.58;100587.47;5058617;28;20239;-65
2022/07/26 00:20:22;;;;;;;8.07;5.60;;;;;;;19.82;74.45;100587.47;5057975;28;20169;-64
2022/07/26 00:22:48;;;;;;;7.70;5.30;;;;;;;19.68;74.58;100590.50;5058683;28;20451;-64
2022/07/26 00:25:13;;;;;;;8.60;5.40;;;;;;;19.89;73.83;100587.25;5058966;28;20203;-65
2022/07/26 00:27:39;;;;;;;6.37;5.60;;;;;;;20.08;73.12;100593.72;5058554;28;20271;-65
2022/07/26 00:30:06;;;;;;;7.07;5.23;;;;;;;19.92;74.12;100590.69;5058663;28;20248;-64
2022/07/26 00:32:31;;;;;;;7.60;5.60;;;;;;;20.05;73.17;100585.84;5058867;28;20404;-64
2022/07/26 00:34:56;;;;;;;9.20;5.30;;;;;;;19.75;73.67;100599.09;5058278;28;20438;-64
2022/07/26 00:37:22;;;;;;;8.63;5.63;;;;;;;19.79;74.00;100592.81;5058201;28;20166;-64
2022/07/26 00:39:48;;;;;;;8.30;5.53;;;;;;;19.83;73.78;100589.19;5058715;28;20495;-64
2022/07/26 00:42:13;;;;;;;8.97;5.83;;;;;;;19.79;74.56;100590.16;5058486;28;20332;-65
2022/07/26 00:44:40;;;;;;;8.17;5.93;;;;;;;19.92;73.98;100598.63;5058134;28;20208;-65
2022/07/26 00:47:06;;;;;;;9.47;6.10;;;;;;;19.73;74.90;100598.31;5058629;28;20166;-64
2022/07/26 00:49:31;;;;;;;8.87;6.20;;;;;;;19.67;74.81;100598.47;5058212;28;20412;-64
2022/07/26 00:51:57;;;;;;;7.17;5.90;;;;;;;19.60;75.10;100596.94;5058224;28;20225;-65
2022/07/26 00:54:22;;;;;;;8.13;6.00;;;;;;;19.83;74.01;100591.81;5057956;28;20213;-64
2022/07/26 00:56:48;;;;;;;7.27;6.13;;;;;;;19.76;74.47;100592.91;5058058;28;20181;-65
2022/07/26 00:59:13;;;;;;;9.00;5.60;;;;;;;19.65;75.11;100589.75;5057540;28;20204;-65
2022/07/26 01:01:39;;;;;;;10.43;5.90;;;;;;;19.91;73.85;100590.75;5058045;28;20328;-64
2022/07/26 01:04:04;;;;;;;10.43;6.30;;;;;;;19.71;74.22;100602.75;5057717;28;20173;-65
2022/07/26 01:06:30;;;;;;;8.83;6.00;;;;;;;20.05;73.65;100591.13;5057449;28;20169;-64
2022/07/26 01:08:55;;;;;;;9.07;5.30;;;;;;;19.80;74.25;100594.56;5057181;28;20227;-62
2022/07/26 01:11:21;;;;;;;10.73;5.60;;;;;;;19.65;75.08;100595.03;5057844;28;20166;-63
2022/07/26 01:13:49;;;;;;;5.47;4.80;;;;;;;19.49;76.10;100599.91;5058091;28;20200;-64
2022/07/26 01:16:15;;;;;;;10.33;5.70;;;;;;;19.83;74.25;100583.88;5057825;28;20162;-64
2022/07/26 01:18:41;;;;;;;9.40;5.47;;;;;;;19.79;74.28;100590.16;5057839;28;20525;-64
2022/07/26 01:21:09;;;;;;;8.57;5.30;;;;;;;19.74;73.78;100583.28;5058181;28;20499;-64
2022/07/26 01:23:35;;;;;;;12.43;5.27;;;;;;;19.78;73.94;100582.28;5056807;28;20204;-65
2022/07/26 01:26:01;;;;;;;14.33;5.10;;;;;;;19.64;74.66;100582.72;5057693;28;20451;-64
2022/07/26 01:28:27;;;;;;;7.33;5.50;;;;;;;19.55;75.30;100582.97;5057920;28;20700;-64
2022/07/26 01:30:52;;;;;;;8.90;5.97;;;;;;;19.57;75.02;100582.03;5057721;28;20507;-64
2022/07/26 01:33:17;;;;;;;7.23;5.17;;;;;;;19.80;73.55;100578.69;5056984;28;20170;-65
2022/07/26 01:35:43;;;;;;;8.20;5.77;;;;;;;19.62;74.09;100587.16;5057729;28;20169;-64
2022/07/26 01:38:08;;;;;;;7.47;5.80;;;;;;;19.60;74.81;100587.22;5057385;28;20240;-64
2022/07/26 01:40:34;;;;;;;11.03;4.90;;;;;;;19.27;75.02;100578.53;5057797;28;20199;-63
2022/07/26 01:42:59;;;;;;;8.00;5.67;;;;;;;19.38;74.61;100578.22;5057972;28;20166;-64
2022/07/26 01:45:24;;;;;;;14.70;5.50;;;;;;;19.72;74.45;100580.69;5057395;28;20169;-64
2022/07/26 01:47:50;;;;;;;9.70;5.93;;;;;;;19.47;74.77;100586.72;5057516;28;20170;-64
2022/07/26 01:50:16;;;;;;;11.67;7.13;;;;;;;19.72;74.60;100587.78;5057724;28;20177;-63
2022/07/26 01:52:42;;;;;;;16.17;7.50;;;;;;;19.62;74.33;100589.81;5057287;28;20446;-64
2022/07/26 01:55:08;;;;;;;11.07;5.97;;;;;;;19.64;74.23;100588.84;5057347;28;20420;-64
2022/07/26 01:57:33;;;;;;;10.83;5.83;;;;;;;19.88;73.42;100578.47;5057610;28;20189;-64
2022/07/26 01:59:58;;;;;;;9.57;5.90;;;;;;;19.68;73.72;100579.06;5057506;28;20495;-64
2022/07/26 02:02:24;;;;;;;9.70;5.47;;;;;;;19.88;72.78;100575.81;5057360;28;20223;-64
2022/07/26 02:04:58;;;;;;;10.00;5.80;;;;;;;19.60;73.91;100579.28;5057538;28;20189;-64
2022/07/26 02:07:28;;;;;;;12.97;5.90;;;;;;;19.51;74.49;100583.09;5057334;28;20168;-64
2022/07/26 02:09:53;;;;;;;8.70;5.60;;;;;;;19.61;73.45;100582.81;5057232;28;20396;-63
2022/07/26 02:12:19;;;;;;;12.67;6.17;;;;;;;19.78;72.88;100575.22;5057347;28;20415;-64
2022/07/26 02:14:44;;;;;;;9.40;5.50;;;;;;;19.67;73.59;100580.84;5057203;28;20181;-64
2022/07/26 02:17:10;;;;;;;10.37;5.33;;;;;;;19.59;74.30;100580.22;5057469;28;20169;-64
2022/07/26 02:19:36;;;;;;;9.50;5.43;;;;;;;19.52;73.76;100584.81;5057105;28;20176;-65
2022/07/26 02:22:02;;;;;;;14.57;5.77;;;;;;;19.65;73.36;100584.44;5057174;28;20172;-64
2022/07/26 02:24:28;;;;;;;9.13;5.40;;;;;;;19.56;73.96;100579.44;5057625;28;20567;-63
2022/07/26 02:26:54;;;;;;;9.30;5.77;;;;;;;19.71;73.19;100584.25;5057143;28;20503;-64
2022/07/26 02:29:20;;;;;;;9.63;6.13;;;;;;;19.59;73.83;100588.16;5057235;28;20489;-65
2022/07/26 02:31:45;;;;;;;11.40;5.53;;;;;;;19.45;74.28;100588.53;5057600;28;20499;-65
2022/07/26 02:34:10;;;;;;;7.33;4.93;;;;;;;19.30;74.91;100586.38;5056894;28;20178;-64
2022/07/26 02:36:36;;;;;;;8.10;4.83;;;;;;;19.72;73.19;100575.41;5057012;28;20197;-63
2022/07/26 02:39:01;;;;;;;11.67;5.87;;;;;;;19.73;73.07;100582.44;5057485;28;20444;-65
2022/07/26 02:41:27;;;;;;;14.13;5.50;;;;;;;19.32;74.33;100584.53;5057633;28;20179;-63
2022/07/26 02:43:52;;;;;;;10.77;5.53;;;;;;;19.11;75.54;100594.81;5060529;28;20205;-63
2022/07/26 02:46:17;;;;;;;8.07;5.43;;;;;;;19.22;75.57;100583.09;5061248;28;20507;-64
2022/07/26 02:48:43;;;;;;;8.70;5.23;;;;;;;19.52;74.17;100579.53;5060531;28;20204;-63
2022/07/26 02:51:08;;;;;;;13.17;5.93;;;;;;;19.42;74.68;100577.22;5060621;28;20166;-63
2022/07/26 02:53:33;;;;;;;8.20;5.40;;;;;;;19.57;73.95;100587.31;5060355;28;20328;-64
2022/07/26 02:55:59;;;;;;;7.60;5.33;;;;;;;19.42;74.61;100588.66;5060673;28;20563;-65
2022/07/26 02:58:25;;;;;;;12.43;5.80;;;;;;;19.49;74.27;100595.47;5060429;28;20548;-65
2022/07/26 03:01:06;;;;;;;13.37;5.50;;;;;;;19.39;75.44;100603.72;5038405;28;20197;-64
2022/07/26 03:03:31;;;;;;;9.20;5.20;;;;;;;19.37;76.01;100590.56;5060339;28;20695;-64
2022/07/26 03:05:57;;;;;;;13.33;5.93;;;;;;;19.78;75.01;100606.06;5060239;28;20192;-64
2022/07/26 03:08:22;;;;;;;11.43;5.63;;;;;;;19.24;76.28;100607.66;5060337;28;20177;-64
2022/07/26 03:10:47;;;;;;;15.27;8.27;;;;;;;19.41;76.21;100605.41;5060612;28;20523;-65
2022/07/26 03:13:13;;;;;;;12.50;5.80;;;;;;;19.51;75.23;100614.81;5060034;28;20283;-64
2022/07/26 03:15:38;;;;;;;8.30;5.40;;;;;;;19.67;74.95;100619.63;5060140;28;20423;-63
2022/07/26 03:18:04;;;;;;;18.60;6.57;;;;;;;19.62;74.32;100617.13;5060183;28;20254;-64
2022/07/26 03:20:30;;;;;;;9.70;5.10;;;;;;;19.77;74.77;100618.44;5060466;28;20249;-64
2022/07/26 03:22:55;;;;;;;10.67;5.40;;;;;;;19.68;75.26;100616.09;5059862;28;20879;-64
2022/07/26 03:25:20;;;;;;;11.47;5.10;;;;;;;19.80;74.39;100615.75;5060114;28;20215;-63
2022/07/26 03:27:46;;;;;;;10.43;5.40;;;;;;;19.89;73.72;100611.06;5059837;28;20193;-63
2022/07/26 03:30:12;;;;;;;8.50;5.43;;;;;;;19.58;75.11;100615.50;5059017;28;20165;-63
2022/07/26 03:32:37;;;;;;;8.17;4.53;;;;;;;19.74;74.19;100613.25;5060061;28;20542;-64
2022/07/26 03:35:03;;;;;;;12.37;6.37;;;;;;;19.89;73.99;100619.00;5059418;28;20452;-64
2022/07/26 03:37:29;;;;;;;9.10;4.83;;;;;;;19.79;73.89;100619.25;5059520;28;20176;-64
2022/07/26 03:39:55;;;;;;;17.50;5.63;;;;;;;19.79;74.11;100619.25;5060004;28;20422;-64
2022/07/26 03:42:20;;;;;;;13.70;5.73;;;;;;;19.61;74.89;100623.34;5059518;28;20264;-64
2022/07/26 03:44:46;;;;;;;10.50;5.83;;;;;;;19.67;74.61;100615.22;5059259;28;20185;-64
2022/07/26 03:47:11;;;;;;;12.13;5.47;;;;;;;19.83;74.41;100617.41;5059823;28;20176;-64
2022/07/26 03:49:37;;;;;;;11.20;5.00;;;;;;;19.80;74.54;100613.09;5059673;28;20220;-63
2022/07/26 03:52:02;;;;;;;10.23;5.40;;;;;;;19.77;74.14;100615.81;5059541;28;20220;-63
2022/07/26 03:54:28;;;;;;;9.40;5.30;;;;;;;19.70;74.59;100614.28;5058151;28;20228;-64
2022/07/26 03:56:53;;;;;;;11.87;6.23;;;;;;;19.76;74.51;100616.72;5060948;28;20432;-63
2022/07/26 03:59:18;;;;;;;18.03;5.80;;;;;;;19.84;74.78;100605.94;5064709;28;20574;-63
2022/07/26 04:01:45;;;;;;;10.13;5.37;;;;;;;19.88;74.54;100609.34;5059067;28;20177;-63
2022/07/26 04:04:12;;;;;;;8.77;5.23;;;;;;;19.84;74.04;100611.22;5059134;28;20475;-65
2022/07/26 04:06:38;;;;;;;10.60;5.83;;;;;;;19.83;74.21;100610.34;5059552;28;20416;-63
2022/07/26 04:09:04;;;;;;;11.17;6.07;;;;;;;19.63;74.80;100608.31;5059162;28;20424;-64
2022/07/26 04:11:30;;;;;;;17.93;6.53;;;;;;;19.93;74.59;100615.34;5059062;28;20424;-65
2022/07/26 04:13:57;;;;;;;9.17;5.40;;;;;;;19.55;75.37;100615.56;5059370;28;20792;-64
2022/07/26 04:16:22;;;;;;;13.50;5.93;;;;;;;19.57;74.86;100613.75;5058714;28;20231;-64
2022/07/26 04:18:47;;;;;;;10.17;5.57;;;;;;;19.50;75.80;100612.22;5058668;28;20463;-65
2022/07/26 04:21:13;;;;;;;11.67;5.70;;;;;;;19.77;75.09;100617.56;5059207;28;20624;-64
2022/07/26 04:23:38;;;;;;;12.60;5.37;;;;;;;19.71;74.68;100626.56;5058729;28;20199;-63
2022/07/26 04:26:04;;;;;;;10.83;5.77;;;;;;;19.90;74.41;100631.34;5058826;28;20181;-65
2022/07/26 04:28:29;;;;;;;15.30;9.33;;;;;;;19.97;74.39;100627.56;5059017;28;20427;-64
2022/07/26 04:30:55;;;;;;;11.40;5.43;;;;;;;20.22;73.62;100629.47;5058576;28;20303;-64
2022/07/26 04:33:21;;;;;;;13.30;6.00;;;;;;;19.98;74.13;100632.81;5058548;28;20174;-64
2022/07/26 04:35:47;;;;;;;13.33;5.50;;;;;;;20.13;73.67;100641.19;5058884;28;20435;-64
2022/07/26 04:38:12;;;;;;;11.00;5.40;;;;;;;19.68;75.15;100631.94;5058278;28;20323;-64
2022/07/26 04:40:37;;;;;;;9.47;5.90;;;;;;;20.01;74.89;100637.13;5058386;28;20264;-63
2022/07/26 04:43:03;;;;;;;10.87;5.83;;;;;;;20.00;74.23;100632.78;5058642;28;20169;-64
2022/07/26 04:45:29;;;;;;;11.93;6.30;;;;;;;19.92;74.47;100634.81;5058038;28;20555;-64
2022/07/26 04:47:54;;;;;;;10.03;5.80;;;;;;;20.14;74.11;100624.41;5058254;28;20180;-64
2022/07/26 04:50:21;;;;;;;11.77;6.53;;;;;;;19.92;74.46;100634.81;5058764;28;20442;-64
2022/07/26 04:52:47;;;;;;;11.73;6.20;;;;;;;20.05;74.26;100635.28;5058067;28;20169;-64
2022/07/26 04:55:13;;;;;;;17.40;6.03;;;;;;;20.21;73.35;100633.00;5058171;28;20420;-64
2022/07/26 04:57:38;;;;;;;12.83;6.67;;;;;;;20.08;73.87;100622.81;5058425;28;20860;-63
2022/07/26 05:00:06;;;;;;;11.70;5.70;;;;;;;20.11;73.85;100625.38;5058165;28;20196;-63
2022/07/26 05:02:31;;;;;;;11.00;6.40;;;;;;;20.03;73.85;100632.69;5057891;28;20193;-64
2022/07/26 05:04:56;;;;;;;12.07;6.20;;;;;;;19.96;74.16;100632.00;5058070;28;20470;-64
2022/07/26 05:07:22;;;;;;;10.47;5.43;;;;;;;19.84;74.24;100627.09;5058067;28;20169;-63
2022/07/26 05:09:47;;;;;;;10.43;5.60;;;;;;;19.88;73.83;100626.09;5057885;28;20177;-63
2022/07/26 05:12:12;;;;;;;7.67;5.30;;;;;;;19.81;74.24;100628.06;5058496;28;20436;-63
2022/07/26 05:14:38;;;;;;;11.33;5.93;;;;;;;20.16;73.66;100634.03;5057606;28;20213;-64
2022/07/26 05:17:04;;;;;;;12.27;5.90;;;;;;;19.77;75.22;100642.25;5057816;28;20209;-64
2022/07/26 05:19:29;;;;;;;12.90;5.90;;;;;;;19.66;75.14;100646.97;5058312;28;20221;-64
2022/07/26 05:21:55;;;;;;;13.33;6.20;;;;;;;19.87;75.41;100642.88;5057779;28;20213;-64
2022/07/26 05:24:20;;;;;;;11.20;5.90;;;;;;;19.87;75.16;100645.50;5057636;28;20166;-64
2022/07/26 05:26:45;;;;;;;9.17;6.30;;;;;;;20.11;74.21;100657.13;5058063;28;20184;-64
2022/07/26 05:29:11;;;;;;;13.43;6.50;;;;;;;19.90;75.31;100674.50;5057553;28;20173;-64
2022/07/26 05:31:36;;;;;;;7.60;5.27;;;;;;;18.78;78.32;100667.88;5057721;28;20218;-64
2022/07/26 05:34:02;;;;;;;6.37;4.37;;;;;;;18.87;78.97;100672.06;5053273;28;20186;-62
2022/07/26 05:36:28;;;;;;;7.63;4.87;;;;;;;19.14;78.79;100670.50;5049625;28;20264;-65
2022/07/26 05:38:53;;;;;;;4.77;4.37;;;;;;;19.21;78.26;100668.56;5057506;28;20584;-64
2022/07/26 05:41:18;;;;;;;6.50;4.83;;;;;;;19.06;78.59;100680.41;5039682;28;20221;-64
2022/07/26 05:43:44;;;;;;;5.27;4.20;;;;;;;19.03;78.79;100676.06;5048708;28;20215;-63
2022/07/26 05:46:10;;;;;;;6.60;4.10;;;;;;;18.96;78.66;100677.16;5057578;28;20165;-63
2022/07/26 05:48:36;;;;;;;7.00;4.50;;;;;;;18.96;78.51;100682.44;5057318;28;20527;-61
2022/07/26 05:51:02;;;;;;;6.00;4.57;;;;;;;19.06;78.23;100673.34;5057828;28;20631;-63
2022/07/26 05:53:27;;;;;;;5.10;4.60;;;;;;;19.07;78.05;100683.00;5049452;28;20498;-63
2022/07/26 05:55:53;;;;;;;7.40;5.27;;;;;;;19.07;78.68;100677.72;5038135;28;20170;-64
2022/07/26 05:58:18;;;;;;;6.10;4.53;;;;;;;19.38;77.83;100676.88;5037560;28;20509;-63
2022/07/26 06:00:43;;;;;;;6.37;4.83;;;;;;;19.51;77.17;100682.66;5037586;28;20271;-64
2022/07/26 06:03:21;;;;;;;7.63;4.87;;;;;;;19.63;76.88;100689.41;5044003;28;20180;-64
2022/07/26 06:05:51;;;;;;;10.23;5.17;;;;;;;19.94;76.34;100680.59;5052407;28;20181;-65
2022/07/26 06:08:17;;;;;;;8.30;4.77;;;;;;;19.79;76.17;100685.38;5056251;28;20427;-66
2022/07/26 06:10:43;;;;;;;5.77;4.60;;;;;;;19.83;76.57;100686.19;5051765;28;20445;-66
2022/07/26 06:13:08;;;;;;;5.60;4.73;;;;;;;19.96;76.27;100692.00;5044388;28;20439;-66
2022/07/26 06:15:34;;;;;;;9.23;4.90;;;;;;;19.71;77.13;100695.31;5048567;28;20436;-65
2022/07/26 06:17:59;;;;;;;5.97;4.90;;;;;;;20.03;76.37;100697.03;5051498;28;20305;-64
2022/07/26 06:20:25;;;;;;;9.07;4.60;;;;;;;20.10;76.38;100705.66;5079044;28;20259;-64
2022/07/26 06:22:51;;;;;;;7.93;4.80;;;;;;;20.27;75.43;100704.28;5063922;28;20268;-63
2022/07/26 06:25:16;;;;;;;8.03;4.50;;;;;;;19.60;77.10;100706.22;5058166;28;20459;-63
2022/07/26 06:27:42;;;;;;;6.33;4.50;;;;;;;20.08;75.91;100706.63;5055047;28;20431;-64
2022/07/26 06:30:08;;;;;;;5.33;4.57;;;;;;;22.83;66.77;100695.00;5053834;28;20252;-65
2022/07/26 06:32:33;;;;;;;22.23;6.10;;;;;;;23.05;62.57;100699.41;5059559;28;20511;-66
2022/07/26 06:34:59;;;;;;;6.20;3.40;;;;;;;22.33;66.61;100706.75;5051959;28;20424;-64
2022/07/26 06:37:25;;;;;;;5.80;3.73;;;;;;;23.37;61.78;100705.16;5053158;28;20272;-65
2022/07/26 06:39:50;;;;;;;7.80;3.30;;;;;;;26.55;53.98;100693.53;5060090;28;20798;-65
2022/07/26 06:42:15;;;;;;;6.67;4.10;;;;;;;24.46;59.03;100709.00;5059172;28;20173;-67
2022/07/26 06:44:41;;;;;;;7.30;3.53;;;;;;;24.35;59.64;100712.19;5060713;28;20602;-64
2022/07/26 06:47:06;;;;;;;4.60;3.40;;;;;;;23.99;60.12;100716.56;5060837;28;20216;-65
2022/07/26 06:49:31;;;;;;;9.20;3.60;;;;;;;23.27;61.93;100706.47;5060880;28;20165;-65
2022/07/26 06:51:57;;;;;;;7.13;3.10;;;;;;;22.93;62.68;100715.88;5061411;28;20189;-65
2022/07/26 06:54:23;;;;;;;4.57;3.23;;;;;;;22.37;64.50;100726.13;5060521;28;20249;-66
2022/07/26 06:56:48;;;;;;;7.27;3.43;;;;;;;22.14;65.89;100727.88;5060817;28;20284;-67
2022/07/26 06:59:14;;;;;;;5.83;3.30;;;;;;;20.75;69.96;100738.09;5060969;28;20501;-66
2022/07/26 07:01:39;;;;;;;6.53;3.13;;;;;;;20.25;70.88;100741.38;5060723;28;20205;-65
2022/07/26 07:04:04;;;;;;;6.00;2.70;;;;;;;20.84;67.98;100748.38;5060316;28;20202;-66
2022/07/26 07:06:30;;;;;;;4.10;2.50;;;;;;;20.53;67.42;100757.28;5060956;28;20201;-65
2022/07/26 07:08:55;;;;;;;6.10;2.53;;;;;;;20.78;68.15;100766.25;5060500;28;20185;-64
2022/07/26 07:11:20;;;;;;;6.10;3.00;;;;;;;20.32;68.80;100758.84;5060305;28;20173;-66
2022/07/26 07:13:46;;;;;;;9.10;3.00;;;;;;;20.62;67.27;100760.56;5060612;28;20231;-65
2022/07/26 07:16:11;;;;;;;3.53;2.40;;;;;;;20.96;66.22;100762.13;5060271;28;20180;-66
2022/07/26 07:18:36;;;;;;;3.53;2.30;;;;;;;21.29;64.00;100764.56;5060077;28;20240;-65
2022/07/26 07:21:02;;;;;;;2.97;2.20;;;;;;;23.89;56.60;100755.19;5060642;28;20169;-66
2022/07/26 07:23:27;;;;;;;2.40;2.10;;;;;;;24.30;56.79;100756.84;5059966;28;20177;-66
2022/07/26 07:25:53;;;;;;;3.73;2.83;;;;;;;25.52;52.14;100759.69;5060058;28;20169;-67
2022/07/26 07:28:18;;;;;;;5.50;2.60;;;;;;;26.19;50.01;100761.47;5060203;28;20303;-66
2022/07/26 07:30:44;;;;;;;4.83;2.43;;;;;;;26.17;49.94;100758.91;5060010;28;20215;-66
2022/07/26 07:33:12;;;;;;;4.50;2.50;;;;;;;26.01;50.35;100764.19;5060029;28;20169;-66
2022/07/26 07:35:38;;;;;;;3.57;2.17;;;;;;;23.85;56.02;100782.84;5060324;28;20188;-67
2022/07/26 07:38:04;;;;;;;5.00;2.50;;;;;;;22.03;60.89;100796.44;5059942;28;20884;-67
2022/07/26 07:40:29;;;;;;;6.10;2.97;;;;;;;20.47;68.21;100814.88;5060472;28;20412;-67
2022/07/26 07:42:54;;;;;;;5.20;2.63;;;;;;;21.02;65.41;100822.91;5059486;28;20173;-67
2022/07/26 07:45:20;;;;;;;4.90;2.40;;;;;;;20.17;66.18;100825.47;5059577;28;20243;-66
2022/07/26 07:47:45;;;;;;;4.33;2.40;;;;;;;20.61;65.87;100839.16;5059792;28;20165;-67
2022/07/26 07:50:11;;;;;;;4.03;2.37;;;;;;;20.11;66.11;100839.75;5060219;28;20193;-67
2022/07/26 07:52:36;;;;;;;7.17;2.47;;;;;;;21.15;64.02;100833.97;5059479;28;20312;-67
2022/07/26 07:55:01;;;;;;;4.83;2.40;;;;;;;20.98;63.17;100837.16;5059283;28;20205;-67
2022/07/26 07:57:27;;;;;;;4.00;2.27;;;;;;;21.53;63.87;100827.38;5059936;28;20166;-67
2022/07/26 07:59:52;;;;;;;2.93;2.10;;;;;;;21.44;62.43;100843.59;5059399;28;20264;-66
2022/07/26 08:02:17;;;;;;;3.13;2.17;;;;;;;22.49;59.46;100837.22;5059418;28;20223;-67
2022/07/26 08:04:43;;;;;;;4.00;2.03;;;;;;;23.37;57.34;100833.69;5059501;28;20538;-66
2022/07/26 08:07:08;;;;;;;4.23;2.23;;;;;;;22.47;59.06;100840.84;5059186;28;20457;-67
2022/07/26 08:09:33;;;;;;;3.90;2.20;;;;;;;23.28;56.36;100827.91;5059339;28;20253;-65
2022/07/26 08:11:59;;;;;;;4.87;2.00;;;;;;;25.33;52.03;100820.25;5059473;28;20201;-67
2022/07/26 08:14:24;;;;;;;4.90;2.17;;;;;;;26.04;49.40;100827.31;5058119;28;20196;-66
2022/07/26 08:16:50;;;;;;;3.90;2.03;;;;;;;26.19;49.29;100833.63;5059147;28;20185;-67
2022/07/26 08:19:15;;;;;;;3.10;2.00;;;;;;;26.55;47.61;100833.41;5059541;28;20277;-67
2022/07/26 08:21:41;;;;;;;3.43;2.20;;;;;;;26.30;48.03;100833.03;5058771;28;20253;-67
2022/07/26 08:24:07;;;;;;;4.60;2.30;;;;;;;27.46;46.45;100829.16;5058588;28;20161;-65
2022/07/26 08:26:32;;;;;;;5.83;2.90;;;;;;;27.27;45.02;100840.09;5059010;28;20166;-64
2022/07/26 08:28:57;;;;;;;3.47;2.43;;;;;;;28.06;43.90;100833.56;5058901;28;20172;-65
2022/07/26 08:31:24;;;;;;;4.20;2.37;;;;;;;27.62;44.47;100834.47;5057749;28;20185;-65
2022/07/26 08:33:50;;;;;;;3.37;2.20;;;;;;;28.15;43.84;100842.84;5058784;28;20173;-66
2022/07/26 08:36:16;;;;;;;4.57;2.40;;;;;;;26.55;46.83;100845.91;5058649;28;20442;-67
2022/07/26 08:38:42;;;;;;;3.47;2.60;;;;;;;26.97;45.17;100851.63;5058263;28;20651;-67
2022/07/26 08:41:07;;;;;;;3.80;2.70;;;;;;;25.57;48.22;100855.53;5058586;28;20409;-67
2022/07/26 08:43:32;;;;;;;4.57;2.07;;;;;;;24.65;51.09;100874.25;5057281;28;20490;-67
2022/07/26 08:46:01;;;;;;;3.83;2.30;;;;;;;23.21;54.46;100876.03;5058347;28;20428;-67
2022/07/26 08:48:28;;;;;;;3.70;2.20;;;;;;;22.88;55.16;100887.06;5058576;28;20219;-65
2022/07/26 08:50:54;;;;;;;3.93;2.50;;;;;;;22.01;58.08;100899.16;5058403;28;20424;-66
2022/07/26 08:53:20;;;;;;;3.30;2.13;;;;;;;23.54;54.04;100894.19;5058189;28;20467;-65
2022/07/26 08:55:46;;;;;;;2.93;2.10;;;;;;;24.14;50.93;100897.84;5057669;28;20428;-66
2022/07/26 08:58:11;;;;;;;3.80;2.20;;;;;;;23.56;52.07;100907.44;5058175;28;20464;-66
2022/07/26 09:00:37;;;;;;;3.77;2.60;;;;;;;23.50;50.24;100900.56;5058440;28;20174;-66
2022/07/26 09:03:03;;;;;;;3.17;2.50;;;;;;;23.26;51.64;100914.88;5058686;28;20158;-64
2022/07/26 09:05:36;;;;;;;5.03;2.40;;;;;;;21.99;53.69;100924.91;5057888;28;20201;-64
2022/07/26 09:08:26;;;;;;;2.97;1.97;;;;;;;20.86;58.28;100941.75;5057880;28;20174;-65
2022/07/26 09:10:52;;;;;;;5.37;2.50;;;;;;;20.93;59.32;100943.34;5058031;28;20740;-64
2022/07/26 09:13:17;;;;;;;3.93;2.50;;;;;;;20.95;59.05;100948.59;5057954;28;20436;-65
2022/07/26 09:15:43;;;;;;;3.33;2.13;;;;;;;21.70;56.92;100950.63;5057811;28;20177;-65
2022/07/26 09:18:27;;;;;;;5.47;2.43;;;;;;;21.78;56.55;100940.63;5057854;28;20223;-65
2022/07/26 09:20:53;;;;;;;2.93;2.47;;;;;;;22.32;55.10;100951.16;5057743;28;20531;-65
2022/07/26 09:23:18;;;;;;;3.40;2.23;;;;;;;22.84;52.81;100951.03;5057841;28;20424;-65
2022/07/26 09:25:44;;;;;;;3.07;1.90;;;;;;;23.26;51.07;100947.69;5058148;28;20486;-67
2022/07/26 09:28:30;;;;;;;4.70;2.30;;;;;;;26.09;45.18;100936.59;5057871;28;20200;-67
2022/07/26 09:30:58;;;;;;;4.50;2.10;;;;;;;26.84;43.11;100937.06;5057767;28;20424;-68
2022/07/26 09:33:25;;;;;;;3.70;2.27;;;;;;;26.16;42.49;100944.22;5057824;28;20423;-67
2022/07/26 09:36:20;;;;;;;3.67;2.57;;;;;;;25.51;44.89;100950.16;5057666;28;20438;-67
2022/07/26 09:38:49;;;;;;;4.50;2.30;;;;;;;26.31;41.44;100949.69;5057213;28;20460;-67
2022/07/26 09:41:18;;;;;;;6.10;2.60;;;;;;;25.08;44.02;100954.03;5057143;28;20408;-64
2022/07/26 09:43:43;;;;;;;3.80;2.30;;;;;;;26.32;41.23;100964.81;5057478;28;20430;-65
2022/07/26 09:46:09;;;;;;;2.63;1.50;;;;;;;25.02;42.71;100964.03;5057526;28;20416;-65
2022/07/26 09:48:38;;;;;;;6.67;2.63;;;;;;;24.45;43.95;100963.97;5057979;28;20208;-67
2022/07/26 09:51:04;;;;;;;5.80;2.53;;;;;;;24.50;44.11;100975.28;5057126;28;20424;-65
2022/07/26 09:53:40;;;;;;;4.60;2.37;;;;;;;25.95;41.72;100977.34;5061502;28;20486;-65
2022/07/26 09:56:06;;;;;;;3.10;2.10;;;;;;;25.00;44.25;100976.56;5061754;28;20435;-65
2022/07/26 09:58:32;;;;;;;3.53;1.93;;;;;;;23.30;47.83;100982.97;5061762;28;20461;-66
2022/07/26 10:00:58;;;;;;;7.50;2.70;;;;;;;25.46;42.59;100976.19;5062280;28;20416;-65
2022/07/26 10:03:23;;;;;;;3.80;2.73;;;;;;;25.64;41.83;100977.13;5061803;28;20501;-65
2022/07/26 10:05:48;;;;;;;3.80;2.07;;;;;;;26.55;41.06;100977.78;5061387;28;20170;-65
2022/07/26 10:08:14;;;;;;;2.90;1.90;;;;;;;26.39;40.97;100982.22;5062105;28;20205;-65
2022/07/26 10:10:45;;;;;;;5.43;2.27;;;;;;;26.52;39.54;100982.41;5061398;28;20165;-66
2022/07/26 10:13:11;;;;;;;3.17;2.30;;;;;;;25.47;40.35;100980.59;5060786;28;20594;-67
2022/07/26 10:15:42;;;;;;;4.33;2.00;;;;;;;25.61;41.13;100984.41;5061778;28;20499;-66
2022/07/26 10:18:09;;;;;;;3.17;2.10;;;;;;;26.66;38.70;100982.56;5061429;28;20499;-66
2022/07/26 10:20:39;;;;;;;2.40;1.90;;;;;;;25.64;40.95;100984.25;5061258;28;20415;-65
2022/07/26 10:23:35;;;;;;;7.07;2.70;;;;;;;24.96;42.55;100990.13;5061348;28;20525;-66
2022/07/26 10:26:01;;;;;;;4.30;2.73;;;;;;;26.08;40.63;100994.50;5061423;28;20814;-65
2022/07/26 10:28:28;;;;;;;4.50;2.20;;;;;;;26.27;37.31;100986.41;5061247;28;20670;-65
2022/07/26 10:31:19;;;;;;;5.83;2.30;;;;;;;28.06;35.43;100980.97;5058955;28;20840;-65
2022/07/26 10:33:49;;;;;;;3.83;2.70;;;;;;;27.06;36.34;100987.53;5048922;28;20797;-65
2022/07/26 10:36:27;;;;;;;4.13;2.47;;;;;;;28.02;34.35;100982.09;5045919;28;20432;-64
2022/07/26 10:39:13;;;;;;;3.40;2.60;;;;;;;28.31;33.59;100984.84;5060117;28;20448;-67
2022/07/26 10:41:46;;;;;;;4.50;2.57;;;;;;;29.13;33.34;100987.78;5062852;28;20777;-67
2022/07/26 10:44:20;;;;;;;5.60;2.70;;;;;;;28.46;33.73;100994.63;5043522;28;20479;-67
2022/07/26 10:46:58;;;;;;;3.60;2.20;;;;;;;26.68;36.93;101003.84;5055957;28;20428;-67
2022/07/26 10:49:35;;;;;;;4.07;2.53;;;;;;;26.56;37.28;101000.03;5055998;28;20750;-67
2022/07/26 10:52:08;;;;;;;7.90;2.50;;;;;;;24.63;41.02;101017.44;5053509;28;20420;-66
2022/07/26 10:55:03;;;;;;;3.50;2.13;;;;;;;24.42;40.93;101014.72;5048622;28;20521;-66
2022/07/26 10:57:42;;;;;;;2.90;2.23;;;;;;;24.97;40.19;101016.75;5055461;28;20427;-67
2022/07/26 11:00:18;;;;;;;4.10;2.30;;;;;;;24.66;39.82;101020.81;5043103;28;20500;-63
2022/07/26 11:02:47;;;;;;;4.73;2.63;;;;;;;25.63;37.95;101022.59;5045302;28;20439;-63
2022/07/26 11:05:16;;;;;;;3.07;2.30;;;;;;;25.79;38.36;101031.56;5041104;28;20439;-64
2022/07/26 11:08:07;;;;;;;5.70;2.80;;;;;;;25.35;38.29;101029.25;5060226;28;20434;-63
2022/07/26 11:10:41;;;;;;;5.43;2.77;;;;;;;24.02;40.86;101037.78;5058358;28;20431;-63
2022/07/26 11:13:18;;;;;;;6.80;2.70;;;;;;;23.34;43.50;101045.78;5059687;28;20427;-63
2022/07/26 11:15:49;;;;;;;3.50;2.70;;;;;;;23.36;43.55;101047.44;5056518;28;20422;-62
2022/07/26 11:18:34;;;;;;;5.83;2.47;;;;;;;23.96;42.68;101046.88;5039459;28;20904;-64
2022/07/26 11:21:16;;;;;;;3.07;2.50;;;;;;;24.16;41.30;101043.38;5040158;28;20423;-65